Time;durP1;ratioP1;P1;durP2;ratioP2;P2;SDS_P1;SDS_P2;PMS_P1;PMS_P2;Temp;Humidity;BMP_temperature;BMP_pressure;BME280_temperature;BME280_humidity;BME280_pressure;Samples;Min_cycle;Max_cycle;Signal;HPM_P1;HPM_P2
2022/09/09 00:02:29;;;;;;;1.20;1.10;;;18.70;99.90;;;;;;5045808;28;20293;-74
2022/09/09 00:05:01;;;;;;;1.20;1.10;;;18.70;99.90;;;;;;5039633;28;20220;-75
2022/09/09 00:07:39;;;;;;;1.80;1.40;;;18.70;99.90;;;;;;5044028;28;20207;-70
2022/09/09 00:10:19;;;;;;;1.25;1.20;;;18.70;99.90;;;;;;5044524;28;20309;-71
2022/09/09 00:12:55;;;;;;;1.38;1.30;;;18.70;99.90;;;;;;5043529;28;20287;-71
2022/09/09 00:15:26;;;;;;;1.00;1.00;;;18.70;99.90;;;;;;5044822;28;20226;-71
2022/09/09 00:18:02;;;;;;;2.05;1.42;;;18.70;99.90;;;;;;5045218;28;20756;-71
2022/09/09 00:20:35;;;;;;;1.52;1.42;;;18.60;99.90;;;;;;5044118;28;20218;-71
2022/09/09 00:23:11;;;;;;;1.05;1.05;;;18.60;99.90;;;;;;5047333;28;20742;-71
2022/09/09 00:25:44;;;;;;;1.20;1.20;;;18.60;99.90;;;;;;5049613;28;20296;-72
2022/09/09 00:28:19;;;;;;;1.13;1.13;;;18.60;99.90;;;;;;5041793;28;20637;-71
2022/09/09 00:30:48;;;;;;;1.23;1.23;;;18.60;99.90;;;;;;5040039;28;20234;-71
2022/09/09 00:33:22;;;;;;;2.03;1.30;;;18.50;99.90;;;;;;5036524;28;20631;-69
2022/09/09 00:35:50;;;;;;;1.55;1.45;;;18.50;99.90;;;;;;5045821;28;20222;-71
2022/09/09 00:38:23;;;;;;;1.58;1.17;;;18.40;99.90;;;;;;5041676;28;20199;-72
2022/09/09 00:40:53;;;;;;;1.45;1.20;;;18.50;99.90;;;;;;5047074;28;20248;-71
2022/09/09 00:43:29;;;;;;;1.27;1.23;;;18.40;99.90;;;;;;5041613;28;20211;-71
2022/09/09 00:46:33;;;;;;;1.50;1.40;;;18.40;99.90;;;;;;5039741;28;20230;-71
2022/09/09 00:49:10;;;;;;;1.30;1.20;;;18.40;99.90;;;;;;5044458;28;20199;-72
2022/09/09 00:51:47;;;;;;;1.33;1.27;;;18.30;99.90;;;;;;5046317;28;20221;-71
2022/09/09 00:54:37;;;;;;;1.20;1.20;;;18.30;99.90;;;;;;5043742;28;20198;-72
2022/09/09 00:57:14;;;;;;;1.25;1.25;;;18.30;99.90;;;;;;5046127;28;20669;-71
2022/09/09 00:59:48;;;;;;;1.42;1.23;;;18.30;99.90;;;;;;5042168;28;20233;-71
2022/09/09 01:02:27;;;;;;;1.23;1.10;;;18.20;99.90;;;;;;5046014;28;20202;-71
2022/09/09 01:04:59;;;;;;;1.38;1.27;;;18.20;99.90;;;;;;5040851;28;20250;-71
2022/09/09 01:07:27;;;;;;;2.15;1.17;;;18.20;99.90;;;;;;5042026;28;20200;-71
2022/09/09 01:09:57;;;;;;;1.05;1.05;;;18.20;99.90;;;;;;5043982;28;20238;-71
2022/09/09 01:12:36;;;;;;;4.10;1.60;;;18.20;99.90;;;;;;5038423;28;20258;-71
2022/09/09 01:15:11;;;;;;;1.80;1.45;;;18.20;99.90;;;;;;5040795;28;20227;-71
2022/09/09 01:17:51;;;;;;;1.00;1.00;;;18.30;99.90;;;;;;5041741;28;20210;-71
2022/09/09 01:20:24;;;;;;;3.08;1.30;;;18.20;99.90;;;;;;5043057;28;20301;-72
2022/09/09 01:23:06;;;;;;;1.95;1.40;;;18.20;99.90;;;;;;5044961;28;20253;-71
2022/09/09 01:26:16;;;;;;;1.63;1.35;;;18.20;99.90;;;;;;5040473;28;20292;-71
2022/09/09 01:28:47;;;;;;;1.25;1.25;;;18.20;99.90;;;;;;5032312;28;20253;-71
2022/09/09 01:31:19;;;;;;;1.33;1.23;;;18.20;99.90;;;;;;5043091;28;20223;-71
2022/09/09 01:33:46;;;;;;;4.32;1.42;;;18.20;99.90;;;;;;5043223;28;20735;-71
2022/09/09 01:36:20;;;;;;;1.17;1.17;;;18.20;99.90;;;;;;5040570;28;20245;-72
2022/09/09 01:38:47;;;;;;;2.10;1.17;;;18.20;99.90;;;;;;5040103;28;20202;-72
2022/09/09 01:41:14;;;;;;;1.50;1.40;;;18.20;99.90;;;;;;5049421;28;20709;-71
2022/09/09 01:43:41;;;;;;;1.40;1.30;;;18.20;99.90;;;;;;5040047;28;20254;-72
2022/09/09 01:46:12;;;;;;;1.20;1.10;;;18.20;99.90;;;;;;5043654;28;20227;-72
2022/09/09 01:48:39;;;;;;;1.40;1.30;;;18.20;99.90;;;;;;5043775;28;20195;-71
2022/09/09 01:51:08;;;;;;;1.50;1.40;;;18.20;99.90;;;;;;5042097;28;22142;-71
2022/09/09 01:53:35;;;;;;;1.30;1.20;;;18.20;99.90;;;;;;5039682;28;20207;-71
2022/09/09 01:56:11;;;;;;;1.20;1.20;;;18.20;99.90;;;;;;5042737;28;20226;-71
2022/09/09 01:58:51;;;;;;;1.27;1.20;;;18.20;99.90;;;;;;5044582;28;20203;-71
2022/09/09 02:01:33;;;;;;;1.30;1.20;;;18.20;99.90;;;;;;5035595;28;20223;-71
2022/09/09 02:04:10;;;;;;;1.30;1.30;;;18.20;99.90;;;;;;5041263;28;20196;-71
2022/09/09 02:06:39;;;;;;;1.33;1.30;;;18.20;99.90;;;;;;5044737;28;20226;-71
2022/09/09 02:09:08;;;;;;;1.30;1.20;;;18.20;99.90;;;;;;5042679;28;20706;-71
2022/09/09 02:11:36;;;;;;;1.92;1.55;;;18.20;99.90;;;;;;5040194;28;20234;-71
2022/09/09 02:14:09;;;;;;;1.67;1.10;;;18.20;99.90;;;;;;5042043;28;20195;-71
2022/09/09 02:16:42;;;;;;;1.00;1.00;;;18.20;99.90;;;;;;5039480;28;20227;-71
2022/09/09 02:19:15;;;;;;;1.77;1.50;;;18.20;99.90;;;;;;5041035;28;20203;-71
2022/09/09 02:21:45;;;;;;;1.20;1.20;;;18.30;99.90;;;;;;5040316;28;20222;-71
2022/09/09 02:24:16;;;;;;;1.20;1.20;;;18.30;99.90;;;;;;5038681;28;20248;-71
2022/09/09 02:26:46;;;;;;;1.25;1.25;;;18.30;99.90;;;;;;5045639;28;20237;-71
2022/09/09 02:29:18;;;;;;;1.13;1.10;;;18.30;99.90;;;;;;5040710;28;20203;-71
2022/09/09 02:31:50;;;;;;;1.15;1.15;;;18.20;99.90;;;;;;5042349;28;20195;-71
2022/09/09 02:34:21;;;;;;;1.30;1.30;;;18.30;99.90;;;;;;5044058;28;20199;-72
2022/09/09 02:36:50;;;;;;;1.13;1.10;;;18.30;99.90;;;;;;5039450;28;20203;-71
2022/09/09 02:39:17;;;;;;;1.30;1.20;;;18.30;99.90;;;;;;5039607;28;20196;-71
2022/09/09 02:41:44;;;;;;;1.27;1.20;;;18.30;99.90;;;;;;5040991;28;20206;-71
2022/09/09 02:44:12;;;;;;;0.90;0.90;;;18.20;99.90;;;;;;5042574;28;20195;-71
2022/09/09 02:47:05;;;;;;;1.25;1.25;;;18.20;99.90;;;;;;5044204;28;20199;-71
2022/09/09 02:49:42;;;;;;;0.98;0.98;;;18.20;99.90;;;;;;5039340;28;20226;-71
2022/09/09 02:52:15;;;;;;;3.53;1.30;;;18.20;99.90;;;;;;5037329;28;20198;-72
2022/09/09 02:54:44;;;;;;;1.08;1.08;;;18.10;99.90;;;;;;5040197;28;20253;-71
2022/09/09 02:57:13;;;;;;;1.08;1.00;;;18.00;99.90;;;;;;5041252;28;20312;-72
2022/09/09 02:59:41;;;;;;;1.42;1.20;;;18.10;99.90;;;;;;5040346;28;20250;-71
2022/09/09 03:02:11;;;;;;;1.10;1.10;;;18.00;99.90;;;;;;5042839;28;20223;-71
2022/09/09 03:04:38;;;;;;;1.20;1.20;;;18.00;99.90;;;;;;5041832;28;20230;-73
2022/09/09 03:07:05;;;;;;;1.17;1.08;;;18.00;99.90;;;;;;5039461;28;20199;-71
2022/09/09 03:09:33;;;;;;;2.15;1.15;;;18.00;99.90;;;;;;5040823;28;20222;-71
2022/09/09 03:12:00;;;;;;;1.30;1.10;;;18.00;99.90;;;;;;5046717;28;20208;-71
2022/09/09 03:14:27;;;;;;;1.00;1.00;;;18.00;99.90;;;;;;5041288;28;20444;-71
2022/09/09 03:16:56;;;;;;;1.45;1.30;;;18.00;99.90;;;;;;5044822;28;20195;-71
2022/09/09 03:19:24;;;;;;;1.30;1.20;;;18.00;99.90;;;;;;5037780;28;20191;-71
2022/09/09 03:21:51;;;;;;;1.05;1.05;;;17.90;99.90;;;;;;5043636;28;20199;-71
2022/09/09 03:24:19;;;;;;;1.25;1.20;;;17.90;99.90;;;;;;5041743;28;20206;-71
2022/09/09 03:26:46;;;;;;;1.10;1.10;;;17.90;99.90;;;;;;5041644;28;20196;-71
2022/09/09 03:29:14;;;;;;;1.35;1.25;;;17.90;99.90;;;;;;5041472;28;20204;-72
2022/09/09 03:31:42;;;;;;;1.08;1.08;;;17.90;99.90;;;;;;5043459;28;20217;-71
2022/09/09 03:34:09;;;;;;;1.30;1.20;;;17.90;99.90;;;;;;5041907;28;20198;-71
2022/09/09 03:36:38;;;;;;;1.10;1.10;;;17.90;99.90;;;;;;5044398;28;20203;-71
2022/09/09 03:39:05;;;;;;;1.30;1.20;;;17.90;99.90;;;;;;5048214;28;20199;-71
2022/09/09 03:41:33;;;;;;;1.25;1.15;;;17.90;99.90;;;;;;5048827;28;20308;-71
2022/09/09 03:44:01;;;;;;;1.38;1.27;;;17.90;99.90;;;;;;5046615;28;20203;-71
2022/09/09 03:46:28;;;;;;;1.50;1.40;;;17.80;99.90;;;;;;5045527;28;20219;-71
2022/09/09 03:48:55;;;;;;;1.30;1.20;;;17.70;99.90;;;;;;5046420;28;20190;-71
2022/09/09 03:51:22;;;;;;;1.45;1.20;;;17.70;99.90;;;;;;5044264;28;20211;-71
2022/09/09 03:53:50;;;;;;;1.20;1.20;;;17.70;99.90;;;;;;5043942;28;20277;-71
2022/09/09 03:56:17;;;;;;;0.88;0.88;;;17.70;99.90;;;;;;5045977;28;20223;-70
2022/09/09 03:58:44;;;;;;;1.08;1.08;;;17.80;99.90;;;;;;5045784;28;20195;-72
2022/09/09 04:01:13;;;;;;;1.40;1.20;;;17.80;99.90;;;;;;5048103;28;20636;-72
2022/09/09 04:03:42;;;;;;;1.17;1.08;;;17.80;99.90;;;;;;5045045;28;20227;-71
2022/09/09 04:06:11;;;;;;;1.45;1.15;;;17.80;99.90;;;;;;5054495;28;20231;-71
2022/09/09 04:08:39;;;;;;;1.27;1.20;;;17.80;99.90;;;;;;5061578;28;20210;-71
2022/09/09 04:11:07;;;;;;;1.23;1.23;;;17.80;99.90;;;;;;5058721;28;20608;-71
2022/09/09 04:13:35;;;;;;;1.25;1.25;;;17.80;99.90;;;;;;5063345;28;20199;-71
2022/09/09 04:16:04;;;;;;;1.30;1.20;;;17.80;99.90;;;;;;5061219;28;20241;-71
2022/09/09 04:18:32;;;;;;;1.05;1.05;;;17.80;99.90;;;;;;5068076;28;20202;-72
2022/09/09 04:20:59;;;;;;;1.63;1.52;;;17.80;99.90;;;;;;5072517;28;20249;-72
2022/09/09 04:23:28;;;;;;;1.50;1.40;;;17.80;99.90;;;;;;5068115;28;20196;-71
2022/09/09 04:25:56;;;;;;;1.08;1.08;;;17.70;99.90;;;;;;5048204;28;20219;-71
2022/09/09 04:28:27;;;;;;;1.88;1.50;;;17.70;99.90;;;;;;5042700;28;20222;-71
2022/09/09 04:30:54;;;;;;;1.50;1.38;;;17.70;99.90;;;;;;5044491;28;20280;-72
2022/09/09 04:33:22;;;;;;;1.35;1.30;;;17.60;99.90;;;;;;5040786;28;20206;-71
2022/09/09 04:35:53;;;;;;;2.10;1.55;;;17.60;99.90;;;;;;5046015;28;20218;-72
2022/09/09 04:38:22;;;;;;;2.08;1.50;;;17.50;99.90;;;;;;5042227;28;20199;-71
2022/09/09 04:40:51;;;;;;;1.45;1.35;;;17.50;99.90;;;;;;5045480;28;20296;-72
2022/09/09 04:43:18;;;;;;;1.30;1.30;;;17.40;99.90;;;;;;5036056;28;20196;-71
2022/09/09 04:45:49;;;;;;;2.42;1.50;;;17.50;99.90;;;;;;5046781;28;20234;-72
2022/09/09 04:48:16;;;;;;;1.42;1.33;;;17.50;99.90;;;;;;5044075;28;20607;-72
2022/09/09 04:50:43;;;;;;;1.50;1.40;;;17.60;99.90;;;;;;5042698;28;20719;-72
2022/09/09 04:53:11;;;;;;;3.03;1.30;;;17.70;99.90;;;;;;5042156;28;20256;-71
2022/09/09 04:55:37;;;;;;;1.50;1.40;;;17.70;99.90;;;;;;5045796;28;20241;-72
2022/09/09 04:58:06;;;;;;;1.33;1.33;;;17.70;99.90;;;;;;5043028;28;20252;-71
2022/09/09 05:00:33;;;;;;;1.30;1.20;;;17.60;99.90;;;;;;5040120;28;20227;-71
2022/09/09 05:03:04;;;;;;;1.27;1.20;;;17.60;99.90;;;;;;5041279;28;20661;-71
2022/09/09 05:05:31;;;;;;;2.17;1.40;;;17.60;99.90;;;;;;5046060;28;20225;-71
2022/09/09 05:08:03;;;;;;;1.00;1.00;;;17.60;99.90;;;;;;5046413;28;20203;-71
2022/09/09 05:10:30;;;;;;;1.23;1.23;;;17.70;99.90;;;;;;5038547;28;20211;-71
2022/09/09 05:12:57;;;;;;;1.20;1.20;;;17.80;99.90;;;;;;5045043;28;20573;-71
2022/09/09 05:15:24;;;;;;;1.20;1.20;;;17.90;99.90;;;;;;5044092;28;20219;-71
2022/09/09 05:17:52;;;;;;;1.20;1.10;;;17.90;99.90;;;;;;5043747;28;20677;-71
2022/09/09 05:20:21;;;;;;;1.20;1.10;;;18.00;99.90;;;;;;5039688;28;20228;-72
2022/09/09 05:22:49;;;;;;;1.02;1.02;;;18.10;99.90;;;;;;5036684;28;20208;-71
2022/09/09 05:25:16;;;;;;;1.15;1.15;;;18.20;99.90;;;;;;5041162;28;20717;-71
2022/09/09 05:27:43;;;;;;;1.23;1.13;;;18.20;99.90;;;;;;5043510;28;20212;-73
2022/09/09 05:30:11;;;;;;;1.98;1.15;;;18.20;99.90;;;;;;5043669;28;20284;-73
2022/09/09 05:32:38;;;;;;;0.95;0.93;;;18.20;99.90;;;;;;5047921;28;20215;-73
2022/09/09 05:35:06;;;;;;;1.27;1.25;;;18.20;99.90;;;;;;5043757;28;20728;-73
2022/09/09 05:37:34;;;;;;;1.38;1.27;;;18.30;99.90;;;;;;5047610;28;20195;-73
2022/09/09 05:40:02;;;;;;;1.10;1.10;;;18.30;99.90;;;;;;5044265;28;20288;-73
2022/09/09 05:42:32;;;;;;;1.20;1.10;;;18.40;99.90;;;;;;5044167;28;20211;-73
2022/09/09 05:44:59;;;;;;;1.20;1.20;;;18.50;99.90;;;;;;5043173;28;20226;-73
2022/09/09 05:47:27;;;;;;;1.60;1.30;;;18.50;99.90;;;;;;5049089;28;20191;-73
2022/09/09 05:49:55;;;;;;;1.30;1.20;;;18.50;99.90;;;;;;5044521;28;20246;-73
2022/09/09 05:52:22;;;;;;;1.42;1.10;;;18.50;99.90;;;;;;5045316;28;20278;-73
2022/09/09 05:54:51;;;;;;;1.23;1.17;;;18.50;99.90;;;;;;5036901;28;20215;-74
2022/09/09 05:57:19;;;;;;;1.88;1.30;;;18.50;99.90;;;;;;5038383;28;20207;-73
2022/09/09 05:59:46;;;;;;;1.00;1.00;;;18.40;99.90;;;;;;5044089;28;20265;-73
2022/09/09 06:02:14;;;;;;;1.42;1.20;;;18.40;99.90;;;;;;5041503;28;20226;-73
2022/09/09 06:04:41;;;;;;;1.35;1.15;;;18.30;99.90;;;;;;5043252;28;20404;-74
2022/09/09 06:07:08;;;;;;;1.52;1.20;;;18.30;99.90;;;;;;5039966;28;20679;-72
2022/09/09 06:09:36;;;;;;;1.30;1.20;;;18.20;99.90;;;;;;5042428;28;20301;-73
2022/09/09 06:12:05;;;;;;;1.30;1.10;;;18.30;99.90;;;;;;5038856;28;20229;-72
2022/09/09 06:14:32;;;;;;;2.97;1.30;;;18.50;99.90;;;;;;5044589;28;20230;-72
2022/09/09 06:16:59;;;;;;;1.52;1.00;;;18.70;99.90;;;;;;5041248;28;20224;-72
2022/09/09 06:19:26;;;;;;;2.15;1.10;;;18.80;99.90;;;;;;5043187;28;20203;-73
2022/09/09 06:21:54;;;;;;;1.33;1.20;;;18.80;99.90;;;;;;5046007;28;20313;-73
2022/09/09 06:24:22;;;;;;;1.10;1.00;;;18.80;99.90;;;;;;5046517;28;20273;-72
2022/09/09 06:26:49;;;;;;;1.90;1.20;;;18.80;99.90;;;;;;5041029;28;20684;-73
2022/09/09 06:29:17;;;;;;;1.33;1.23;;;18.90;99.90;;;;;;5039339;28;20201;-72
2022/09/09 06:31:44;;;;;;;1.58;1.20;;;19.00;99.90;;;;;;5036041;28;20654;-73
2022/09/09 06:34:11;;;;;;;1.38;1.25;;;19.00;99.90;;;;;;5033279;28;20203;-73
2022/09/09 06:36:42;;;;;;;2.25;1.35;;;18.90;99.90;;;;;;5035764;28;20195;-74
2022/09/09 06:39:11;;;;;;;1.60;1.10;;;18.80;99.90;;;;;;5039016;28;20199;-74
2022/09/09 06:41:39;;;;;;;1.50;1.40;;;18.70;99.90;;;;;;5035312;28;20215;-73
2022/09/09 06:44:06;;;;;;;1.30;1.20;;;18.70;99.90;;;;;;5040297;28;20194;-73
2022/09/09 06:46:35;;;;;;;1.00;1.00;;;18.70;99.90;;;;;;5036957;28;20727;-73
2022/09/09 06:49:02;;;;;;;6.05;2.10;;;18.70;99.90;;;;;;5037412;28;20623;-73
2022/09/09 06:51:31;;;;;;;1.25;1.15;;;18.70;99.90;;;;;;5034957;28;20218;-74
2022/09/09 06:54:01;;;;;;;2.85;1.23;;;18.60;99.90;;;;;;5038345;28;20203;-73
2022/09/09 06:56:30;;;;;;;1.40;1.30;;;18.50;99.90;;;;;;5034049;28;20333;-73
2022/09/09 06:59:00;;;;;;;1.40;1.30;;;18.40;99.90;;;;;;5034227;28;20195;-73
2022/09/09 07:01:30;;;;;;;2.58;1.45;;;18.50;99.90;;;;;;5034190;28;20230;-74
2022/09/09 07:03:59;;;;;;;1.23;1.02;;;18.60;99.90;;;;;;5033495;28;20241;-73
2022/09/09 07:06:28;;;;;;;1.38;1.27;;;18.70;99.90;;;;;;5037016;28;20249;-72
2022/09/09 07:08:57;;;;;;;1.42;1.17;;;18.90;99.90;;;;;;5035516;28;20199;-73
2022/09/09 07:11:26;;;;;;;1.45;1.20;;;19.00;99.90;;;;;;5033895;28;20767;-74
2022/09/09 07:13:54;;;;;;;2.25;1.52;;;19.10;99.90;;;;;;5031509;28;20299;-73
2022/09/09 07:16:23;;;;;;;3.28;1.70;;;19.30;99.90;;;;;;5034674;28;20234;-74
2022/09/09 07:18:50;;;;;;;1.50;1.40;;;19.50;99.90;;;;;;5030575;28;20201;-73
2022/09/09 07:21:20;;;;;;;1.80;1.38;;;19.70;99.90;;;;;;5036257;28;20254;-73
2022/09/09 07:23:47;;;;;;;1.50;1.40;;;19.90;99.90;;;;;;5033334;28;20227;-73
2022/09/09 07:26:16;;;;;;;1.02;1.00;;;19.90;99.90;;;;;;5031367;28;20915;-74
2022/09/09 07:28:43;;;;;;;1.25;1.00;;;19.80;99.90;;;;;;5037256;28;20210;-73
2022/09/09 07:31:16;;;;;;;1.17;1.17;;;19.60;99.90;;;;;;5035408;28;20219;-74
2022/09/09 07:33:44;;;;;;;1.48;1.25;;;19.40;99.90;;;;;;5031057;28;20207;-73
2022/09/09 07:36:15;;;;;;;1.00;1.00;;;19.30;99.90;;;;;;5036054;28;20218;-73
2022/09/09 07:38:45;;;;;;;1.33;1.23;;;19.30;99.90;;;;;;5035452;28;20207;-74
2022/09/09 07:41:14;;;;;;;1.70;1.23;;;19.20;99.90;;;;;;5035249;28;20961;-73
2022/09/09 07:43:42;;;;;;;1.10;1.00;;;19.10;99.90;;;;;;5036724;28;20202;-74
2022/09/09 07:46:10;;;;;;;1.63;1.30;;;19.00;99.90;;;;;;5037326;28;20227;-72
2022/09/09 07:48:38;;;;;;;1.70;1.45;;;19.00;99.90;;;;;;5033934;28;20203;-73
2022/09/09 07:51:11;;;;;;;1.13;1.08;;;19.00;99.90;;;;;;5033018;28;20596;-72
2022/09/09 07:53:39;;;;;;;1.67;1.17;;;19.00;99.90;;;;;;5037541;28;20231;-73
2022/09/09 07:56:10;;;;;;;1.13;1.10;;;18.90;99.90;;;;;;5030980;28;20227;-73
2022/09/09 07:58:37;;;;;;;1.38;1.27;;;18.80;99.90;;;;;;5033312;28;20206;-73
2022/09/09 08:01:09;;;;;;;1.27;1.10;;;18.70;99.90;;;;;;5033656;28;20234;-73
2022/09/09 08:03:37;;;;;;;1.88;1.63;;;18.40;99.90;;;;;;5034154;28;20716;-73
2022/09/09 08:06:06;;;;;;;1.55;1.27;;;18.20;99.90;;;;;;5026088;28;20277;-73
2022/09/09 08:08:34;;;;;;;1.80;1.50;;;17.90;99.90;;;;;;5014464;28;20196;-73
2022/09/09 08:11:11;;;;;;;3.17;1.48;;;17.80;99.90;;;;;;5023626;28;20238;-73
2022/09/09 08:13:39;;;;;;;5.03;2.28;;;17.70;99.90;;;;;;5026841;28;20198;-75
2022/09/09 08:16:11;;;;;;;1.48;1.25;;;17.60;99.90;;;;;;5022806;28;20733;-73
2022/09/09 08:18:39;;;;;;;1.35;1.25;;;17.60;99.90;;;;;;5022626;28;20199;-73
2022/09/09 08:21:08;;;;;;;1.25;1.15;;;17.50;99.90;;;;;;5030317;28;20246;-73
2022/09/09 08:23:36;;;;;;;1.90;1.23;;;17.50;99.90;;;;;;5031544;28;20205;-72
2022/09/09 08:26:10;;;;;;;1.15;1.10;;;17.50;99.90;;;;;;5029616;28;20227;-73
2022/09/09 08:28:38;;;;;;;1.00;1.00;;;17.50;99.90;;;;;;5029052;28;20244;-73
2022/09/09 08:31:10;;;;;;;2.05;1.27;;;17.60;99.90;;;;;;5029240;28;20302;-73
2022/09/09 08:33:38;;;;;;;1.73;1.30;;;17.70;99.90;;;;;;5028018;28;20199;-73
2022/09/09 08:36:06;;;;;;;1.23;1.13;;;17.70;99.90;;;;;;5030403;28;20214;-73
2022/09/09 08:38:34;;;;;;;1.95;1.23;;;17.70;99.90;;;;;;5030447;28;20199;-73
2022/09/09 08:41:27;;;;;;;1.10;1.10;;;17.70;99.90;;;;;;5031630;28;20318;-73
2022/09/09 08:44:06;;;;;;;1.10;1.10;;;17.70;99.90;;;;;;5031174;28;20204;-72
2022/09/09 08:46:43;;;;;;;1.10;1.10;;;17.80;99.90;;;;;;5029767;28;20785;-74
2022/09/09 08:49:20;;;;;;;1.33;1.23;;;17.90;99.90;;;;;;5028585;28;20726;-75
2022/09/09 08:51:49;;;;;;;1.55;1.20;;;18.00;99.90;;;;;;5028355;28;20195;-73
2022/09/09 08:54:16;;;;;;;1.60;1.50;;;18.00;99.90;;;;;;5027108;28;20204;-73
2022/09/09 08:56:45;;;;;;;2.90;1.98;;;17.80;99.90;;;;;;5026085;28;20205;-73
2022/09/09 08:59:18;;;;;;;1.80;1.67;;;17.50;99.90;;;;;;5029285;28;20339;-73
2022/09/09 09:02:07;;;;;;;5.18;2.03;;;17.20;99.90;;;;;;5028971;28;20250;-73
2022/09/09 09:04:46;;;;;;;2.38;1.60;;;16.90;99.90;;;;;;5028241;28;20736;-73
2022/09/09 09:07:22;;;;;;;1.80;1.70;;;16.80;99.90;;;;;;5029394;28;20206;-72
2022/09/09 09:09:59;;;;;;;1.85;1.75;;;16.70;99.90;;;;;;5030851;28;20223;-72
2022/09/09 09:12:30;;;;;;;1.60;1.50;;;16.60;99.90;;;;;;5026593;28;20195;-73
2022/09/09 09:14:58;;;;;;;2.53;1.25;;;16.60;99.90;;;;;;5031558;28;20798;-74
2022/09/09 09:17:31;;;;;;;1.65;1.33;;;16.60;99.90;;;;;;5030019;28;20207;-73
2022/09/09 09:19:59;;;;;;;1.27;1.13;;;16.50;99.90;;;;;;5029356;28;20246;-72
2022/09/09 09:22:36;;;;;;;1.40;1.30;;;16.40;99.90;;;;;;5030874;28;20869;-72
2022/09/09 09:25:12;;;;;;;2.45;1.52;;;16.40;99.90;;;;;;5027047;28;20226;-73
2022/09/09 09:27:46;;;;;;;1.83;1.42;;;16.40;99.90;;;;;;5025630;28;20234;-73
2022/09/09 09:30:18;;;;;;;1.50;1.40;;;16.40;99.90;;;;;;5028625;28;20218;-73
2022/09/09 09:32:52;;;;;;;3.13;1.45;;;16.40;99.90;;;;;;5028882;28;20204;-73
2022/09/09 09:35:19;;;;;;;1.35;1.25;;;16.50;99.90;;;;;;5029433;28;20230;-72
2022/09/09 09:37:47;;;;;;;1.20;1.20;;;16.70;99.90;;;;;;5028071;28;20207;-73
2022/09/09 09:40:17;;;;;;;1.33;1.25;;;16.80;99.90;;;;;;5025612;28;20223;-71
2022/09/09 09:42:53;;;;;;;1.52;1.42;;;16.90;99.90;;;;;;5026470;28;20222;-71
2022/09/09 09:45:29;;;;;;;3.08;1.90;;;16.90;99.90;;;;;;5024186;28;20230;-72
2022/09/09 09:48:01;;;;;;;1.75;1.48;;;17.20;99.90;;;;;;5025486;28;20212;-74
2022/09/09 09:50:29;;;;;;;1.40;1.30;;;17.40;99.90;;;;;;5027484;28;20230;-72
2022/09/09 09:52:58;;;;;;;1.40;1.30;;;17.50;99.90;;;;;;5026408;28;20186;-73
2022/09/09 09:55:27;;;;;;;1.50;1.40;;;17.50;99.90;;;;;;5030681;28;20230;-73
2022/09/09 09:58:02;;;;;;;1.60;1.50;;;17.40;99.90;;;;;;5025233;28;20298;-72
2022/09/09 10:00:29;;;;;;;2.42;1.77;;;17.50;99.90;;;;;;5026898;28;20230;-72
2022/09/09 10:02:56;;;;;;;1.80;1.52;;;17.50;99.90;;;;;;5028790;28;20238;-72
2022/09/09 10:05:28;;;;;;;1.60;1.50;;;17.70;99.90;;;;;;5026817;28;20227;-72
2022/09/09 10:08:06;;;;;;;1.55;1.45;;;17.80;99.90;;;;;;5024838;28;20218;-72
2022/09/09 10:10:43;;;;;;;1.80;1.70;;;18.00;99.90;;;;;;5024635;28;20233;-72
2022/09/09 10:13:21;;;;;;;1.52;1.42;;;18.20;99.90;;;;;;5024036;28;20198;-74
2022/09/09 10:15:58;;;;;;;1.45;1.30;;;18.50;99.90;;;;;;5027358;28;21216;-73
2022/09/09 10:18:43;;;;;;;1.40;1.30;;;18.80;99.90;;;;;;5025949;28;20207;-72
2022/09/09 10:21:25;;;;;;;2.63;1.70;;;19.20;99.90;;;;;;5026209;28;20219;-73
2022/09/09 10:24:05;;;;;;;1.75;1.60;;;19.40;99.90;;;;;;5025660;28;20222;-74
2022/09/09 10:26:43;;;;;;;1.50;1.40;;;19.40;99.90;;;;;;5024904;28;20226;-72
2022/09/09 10:29:23;;;;;;;1.92;1.83;;;19.20;99.90;;;;;;5026190;28;20202;-73
2022/09/09 10:32:02;;;;;;;2.05;1.70;;;19.20;99.90;;;;;;5027369;28;20204;-74
2022/09/09 10:34:50;;;;;;;1.33;1.20;;;19.20;99.90;;;;;;5027073;28;20326;-73
2022/09/09 10:37:31;;;;;;;1.52;1.42;;;19.40;99.90;;;;;;5028183;28;21012;-74
2022/09/09 10:40:10;;;;;;;1.13;1.02;;;20.00;99.90;;;;;;5028708;28;20223;-73
2022/09/09 10:42:37;;;;;;;1.23;1.17;;;20.30;99.90;;;;;;5024899;28;20223;-73
2022/09/09 10:45:18;;;;;;;1.73;1.50;;;20.40;99.90;;;;;;5023451;28;20223;-72
2022/09/09 10:47:58;;;;;;;1.20;1.10;;;20.50;99.90;;;;;;5024810;28;20204;-73
2022/09/09 10:50:52;;;;;;;1.30;1.20;;;20.50;99.90;;;;;;5024690;28;20247;-73
2022/09/09 10:53:29;;;;;;;1.67;1.20;;;20.40;99.90;;;;;;5026675;28;20207;-73
2022/09/09 10:56:02;;;;;;;1.30;1.20;;;20.00;99.90;;;;;;5025510;28;20227;-73
2022/09/09 10:58:35;;;;;;;1.38;1.20;;;19.80;99.90;;;;;;5027404;28;20202;-75
2022/09/09 11:01:13;;;;;;;2.05;1.20;;;19.90;99.90;;;;;;5023097;28;20250;-73
2022/09/09 11:03:42;;;;;;;1.17;1.08;;;20.10;99.90;;;;;;5026539;28;20311;-73
2022/09/09 11:06:16;;;;;;;1.40;1.30;;;20.00;99.90;;;;;;5025553;28;20250;-73
2022/09/09 11:08:43;;;;;;;1.10;1.02;;;19.80;99.90;;;;;;5027521;28;20207;-73
2022/09/09 11:11:16;;;;;;;1.73;1.20;;;19.60;99.90;;;;;;5027176;28;20226;-73
2022/09/09 11:13:49;;;;;;;1.50;1.20;;;19.40;99.90;;;;;;5028887;28;20692;-74
2022/09/09 11:16:26;;;;;;;1.70;1.17;;;19.30;99.90;;;;;;5024060;28;20227;-73
2022/09/09 11:18:59;;;;;;;1.50;1.40;;;19.20;99.90;;;;;;5026333;28;20210;-73
2022/09/09 11:21:32;;;;;;;2.00;1.70;;;19.30;99.90;;;;;;5026560;28;20301;-74
2022/09/09 11:24:04;;;;;;;1.40;1.30;;;19.30;99.90;;;;;;5028710;28;20276;-73
2022/09/09 11:26:38;;;;;;;1.42;1.15;;;19.30;99.90;;;;;;5022779;28;20310;-75
2022/09/09 11:29:46;;;;;;;1.20;1.10;;;19.30;99.90;;;;;;5025801;28;20198;-74
2022/09/09 11:32:34;;;;;;;1.52;1.40;;;19.30;99.90;;;;;;5026767;28;20917;-74
2022/09/09 11:35:13;;;;;;;1.38;1.20;;;19.30;99.90;;;;;;5025789;28;20218;-73
2022/09/09 11:38:03;;;;;;;1.40;1.30;;;19.20;99.90;;;;;;5027171;28;20248;-73
2022/09/09 11:40:31;;;;;;;6.00;1.83;;;19.40;99.90;;;;;;5025986;28;20231;-73
2022/09/09 11:43:09;;;;;;;1.15;1.02;;;19.60;99.90;;;;;;5027723;28;20218;-72
2022/09/09 11:45:37;;;;;;;1.27;1.23;;;19.70;99.90;;;;;;5024268;28;20670;-73
2022/09/09 11:48:06;;;;;;;1.50;1.40;;;19.70;99.90;;;;;;5026040;28;20218;-73
2022/09/09 11:50:37;;;;;;;1.10;1.10;;;19.60;99.90;;;;;;5027472;28;20219;-72
2022/09/09 11:53:16;;;;;;;2.08;1.20;;;19.50;99.90;;;;;;5029179;28;20246;-74
2022/09/09 11:55:43;;;;;;;1.05;1.05;;;19.60;99.90;;;;;;5024909;28;20652;-73
2022/09/09 11:58:20;;;;;;;0.98;0.98;;;20.10;99.90;;;;;;5029368;28;20202;-72
2022/09/09 12:00:49;;;;;;;2.17;1.13;;;20.40;99.90;;;;;;5027361;28;20247;-73
2022/09/09 12:03:42;;;;;;;1.50;1.33;;;20.50;99.90;;;;;;5031451;28;20581;-73
2022/09/09 12:06:20;;;;;;;1.83;1.50;;;20.40;99.90;;;;;;5027137;28;20318;-72
2022/09/09 12:08:52;;;;;;;1.08;1.00;;;20.40;99.90;;;;;;5028371;28;21037;-74
2022/09/09 12:11:31;;;;;;;1.15;1.05;;;20.50;99.90;;;;;;5029442;28;20759;-74
2022/09/09 12:14:00;;;;;;;1.30;1.20;;;20.90;99.90;;;;;;5028271;28;20291;-74
2022/09/09 12:16:34;;;;;;;1.45;1.20;;;21.00;99.90;;;;;;5028185;28;20215;-74
2022/09/09 12:19:17;;;;;;;1.02;1.02;;;21.50;99.90;;;;;;5031768;28;20203;-73
2022/09/09 12:21:51;;;;;;;1.30;1.00;;;22.20;99.90;;;;;;5026239;28;20613;-74
2022/09/09 12:24:24;;;;;;;1.00;0.90;;;22.60;99.90;;;;;;5027874;28;20348;-73
2022/09/09 12:26:59;;;;;;;7.45;1.33;;;22.80;99.90;;;;;;5028452;28;20206;-74
2022/09/09 12:29:33;;;;;;;1.00;1.00;;;22.90;99.90;;;;;;5027552;28;20287;-74
2022/09/09 12:32:07;;;;;;;1.00;0.90;;;22.90;99.90;;;;;;5030130;28;20715;-73
2022/09/09 12:34:40;;;;;;;1.20;1.10;;;23.00;99.90;;;;;;5027128;28;20305;-75
2022/09/09 12:37:18;;;;;;;1.73;1.13;;;22.80;99.90;;;;;;5027522;28;20286;-74
2022/09/09 12:39:48;;;;;;;0.85;0.85;;;22.80;99.90;;;;;;5027839;28;20233;-74
2022/09/09 12:42:19;;;;;;;0.90;0.90;;;22.80;99.90;;;;;;5027051;28;20211;-74
2022/09/09 12:44:54;;;;;;;1.60;1.25;;;22.80;99.90;;;;;;5025366;28;20974;-75
2022/09/09 12:47:24;;;;;;;1.10;1.00;;;22.80;99.90;;;;;;5025541;28;20756;-72
2022/09/09 12:49:56;;;;;;;1.10;1.10;;;22.60;99.90;;;;;;5029704;28;20212;-76
2022/09/09 12:52:29;;;;;;;1.15;0.98;;;22.40;99.90;;;;;;5025568;28;20203;-75
2022/09/09 12:54:59;;;;;;;1.70;1.10;;;22.30;99.90;;;;;;5031247;28;20262;-74
2022/09/09 12:57:32;;;;;;;1.27;1.17;;;22.30;99.90;;;;;;5029677;28;20191;-73
2022/09/09 13:00:12;;;;;;;1.40;1.00;;;22.40;99.90;;;;;;5029663;28;20301;-73
2022/09/09 13:02:48;;;;;;;1.40;1.00;;;22.70;99.90;;;;;;5026643;28;20267;-73
2022/09/09 13:05:20;;;;;;;1.30;1.10;;;22.80;99.90;;;;;;5025230;28;20819;-74
2022/09/09 13:07:48;;;;;;;1.10;1.10;;;22.80;99.90;;;;;;5027964;28;20772;-73
2022/09/09 13:10:20;;;;;;;1.73;0.90;;;22.80;99.90;;;;;;5025709;28;22254;-73
2022/09/09 13:12:47;;;;;;;0.93;0.93;;;22.80;99.90;;;;;;5027047;28;20203;-74